Time;durP1;ratioP1;P1;durP2;ratioP2;P2;SDS_P1;SDS_P2;PMS_P1;PMS_P2;Temp;Humidity;BMP_temperature;BMP_pressure;BME280_temperature;BME280_humidity;BME280_pressure;Samples;Min_cycle;Max_cycle;Signal;HPM_P1;HPM_P2
2022/07/17 00:00:49;;;;;;;;;;;;;;;16.18;100.00;99371.23;1750525;81;20165;-68
2022/07/17 00:03:17;;;;;;;;;;;;;;;16.20;100.00;99373.25;1747770;81;20204;-68
2022/07/17 00:05:44;;;;;;;;;;;;;;;16.23;100.00;99374.84;1748839;81;20169;-68
2022/07/17 00:08:11;;;;;;;;;;;;;;;16.24;100.00;99378.67;1748786;81;21070;-69
2022/07/17 00:10:40;;;;;;;;;;;;;;;16.24;100.00;99381.30;1754658;81;20140;-68
2022/07/17 00:13:06;;;;;;;;;;;;;;;16.24;100.00;99374.73;1749342;81;20165;-68
2022/07/17 00:15:33;;;;;;;;;;;;;;;16.27;100.00;99375.85;1747403;81;20504;-68
2022/07/17 00:17:59;;;;;;;;;;;;;;;16.27;100.00;99379.79;1751760;81;20173;-68
2022/07/17 00:20:26;;;;;;;;;;;;;;;16.26;100.00;99384.66;1751284;81;21099;-69
2022/07/17 00:22:54;;;;;;;;;;;;;;;16.23;100.00;99401.08;1748536;81;20653;-68
2022/07/17 00:25:21;;;;;;;;;;;;;;;16.16;100.00;99401.97;1749932;81;20436;-68
2022/07/17 00:27:47;;;;;;;;;;;;;;;16.13;100.00;99396.92;1750397;81;20141;-68
2022/07/17 00:30:14;;;;;;;;;;;;;;;16.13;100.00;99400.86;1749605;81;20177;-68
2022/07/17 00:32:42;;;;;;;;;;;;;;;16.14;100.00;99405.17;1751851;81;21063;-68
2022/07/17 00:35:08;;;;;;;;;;;;;;;16.13;100.00;99403.01;1751953;81;20493;-68
2022/07/17 00:37:39;;;;;;;;;;;;;;;16.14;100.00;99398.61;1749777;81;20073;-68
2022/07/17 00:40:07;;;;;;;;;;;;;;;16.16;100.00;99405.91;1744148;81;20117;-68
2022/07/17 00:42:34;;;;;;;;;;;;;;;16.18;100.00;99400.09;1750092;81;20457;-68
2022/07/17 00:45:00;;;;;;;;;;;;;;;16.20;100.00;99400.80;1748979;80;21137;-68
2022/07/17 00:47:27;;;;;;;;;;;;;;;16.20;100.00;99397.71;1747786;81;20432;-69
2022/07/17 00:49:53;;;;;;;;;;;;;;;16.20;100.00;99392.46;1746294;81;20251;-68
2022/07/17 00:52:20;;;;;;;;;;;;;;;16.19;100.00;99394.72;1747384;81;20161;-68
2022/07/17 00:54:46;;;;;;;;;;;;;;;16.18;100.00;99393.06;1749881;81;20141;-68
2022/07/17 00:57:14;;;;;;;;;;;;;;;16.17;100.00;99390.54;1748136;81;21129;-68
2022/07/17 00:59:42;;;;;;;;;;;;;;;16.17;100.00;99395.31;1746681;81;20522;-68
2022/07/17 01:02:13;;;;;;;;;;;;;;;16.18;100.00;99403.56;1747202;80;20452;-68
2022/07/17 01:04:39;;;;;;;;;;;;;;;16.22;100.00;99404.64;1746322;81;20133;-68
2022/07/17 01:07:06;;;;;;;;;;;;;;;16.23;100.00;99397.14;1745828;81;20149;-68
2022/07/17 01:09:34;;;;;;;;;;;;;;;16.22;100.00;99392.83;1749684;81;20251;-68
2022/07/17 01:12:03;;;;;;;;;;;;;;;16.19;100.00;99382.06;1749467;81;20117;-68
2022/07/17 01:14:29;;;;;;;;;;;;;;;16.18;100.00;99381.25;1746770;81;20153;-68
2022/07/17 01:16:56;;;;;;;;;;;;;;;16.16;100.00;99379.20;1748997;81;20189;-68
2022/07/17 01:19:22;;;;;;;;;;;;;;;16.14;100.00;99371.90;1748588;81;20141;-68
2022/07/17 01:22:10;;;;;;;;;;;;;;;16.12;100.00;99370.31;1747063;81;20469;-68
2022/07/17 01:24:40;;;;;;;;;;;;;;;16.05;100.00;99365.92;1706710;82;20263;-68
2022/07/17 01:27:06;;;;;;;;;;;;;;;16.00;100.00;99373.72;1724821;83;20173;-68
2022/07/17 01:29:32;;;;;;;;;;;;;;;15.96;100.00;99376.20;1721077;81;20132;-68
2022/07/17 01:31:59;;;;;;;;;;;;;;;15.93;100.00;99375.08;1673865;83;20176;-68
2022/07/17 01:34:25;;;;;;;;;;;;;;;15.89;100.00;99382.30;1723244;83;21144;-68
2022/07/17 01:36:51;;;;;;;;;;;;;;;15.85;100.00;99382.12;1728191;83;20472;-68
2022/07/17 01:39:52;;;;;;;;;;;;;;;15.82;100.00;99375.28;1716050;83;20154;-68
2022/07/17 01:41:46;;;;;;;;;;;;;;;15.82;100.00;99379.69;1706374;82;20467;-68
2022/07/17 01:44:12;;;;;;;;;;;;;;;15.82;100.00;99384.94;1724722;83;20145;-68
2022/07/17 01:46:39;;;;;;;;;;;;;;;15.79;100.00;99391.21;1720990;82;22170;-68
2022/07/17 01:49:05;;;;;;;;;;;;;;;15.77;100.00;99396.20;1723579;82;20134;-68
2022/07/17 01:51:32;;;;;;;;;;;;;;;15.74;100.00;99393.31;1717794;83;20161;-68
2022/07/17 01:53:58;;;;;;;;;;;;;;;15.76;100.00;99404.55;1716081;83;20516;-68
2022/07/17 01:56:25;;;;;;;;;;;;;;;15.79;100.00;99392.52;1714713;83;20169;-68
2022/07/17 01:58:51;;;;;;;;;;;;;;;15.83;100.00;99384.84;1719813;82;21771;-68
2022/07/17 02:01:17;;;;;;;;;;;;;;;15.88;100.00;99390.27;1714981;83;20149;-68
2022/07/17 02:03:45;;;;;;;;;;;;;;;15.91;100.00;99389.60;1718237;83;20134;-68
2022/07/17 02:06:12;;;;;;;;;;;;;;;15.95;100.00;99387.16;1722315;82;20236;-68
2022/07/17 02:08:39;;;;;;;;;;;;;;;15.99;100.00;99387.77;1693968;84;20079;-68
2022/07/17 02:11:05;;;;;;;;;;;;;;;16.03;100.00;99384.02;1636135;84;21184;-68
2022/07/17 02:13:32;;;;;;;;;;;;;;;16.06;100.00;99386.45;1674906;85;20153;-68
2022/07/17 02:15:58;;;;;;;;;;;;;;;16.08;100.00;99391.13;1684578;84;20419;-68
2022/07/17 02:18:24;;;;;;;;;;;;;;;16.07;100.00;99382.41;1689024;85;20148;-68
2022/07/17 02:20:51;;;;;;;;;;;;;;;16.08;100.00;99374.07;1687961;84;20167;-68
2022/07/17 02:23:17;;;;;;;;;;;;;;;16.08;100.00;99379.32;1689044;84;21158;-68
2022/07/17 02:25:43;;;;;;;;;;;;;;;16.09;100.00;99387.09;1676964;85;20496;-68
2022/07/17 02:28:10;;;;;;;;;;;;;;;16.11;100.00;99377.34;1677401;84;20156;-68
2022/07/17 02:30:36;;;;;;;;;;;;;;;16.13;100.00;99379.39;1662654;85;20173;-68
2022/07/17 02:33:03;;;;;;;;;;;;;;;16.16;100.00;99383.61;1662721;83;20152;-68
2022/07/17 02:35:31;;;;;;;;;;;;;;;16.17;100.00;99387.91;1681366;84;21118;-68
2022/07/17 02:37:57;;;;;;;;;;;;;;;16.17;100.00;99370.86;1663162;85;20435;-68
2022/07/17 02:40:24;;;;;;;;;;;;;;;16.17;100.00;99367.77;1678458;84;20149;-68
2022/07/17 02:42:50;;;;;;;;;;;;;;;16.17;100.00;99370.39;1683095;85;20211;-68
2022/07/17 02:45:21;;;;;;;;;;;;;;;16.15;100.00;99367.49;1671644;84;20165;-68
2022/07/17 02:47:45;;;;;;;;;;;;;;;16.11;100.00;99359.45;1671747;85;21115;-68
2022/07/17 02:50:12;;;;;;;;;;;;;;;16.11;100.00;99360.28;1678404;84;20148;-68
2022/07/17 02:52:38;;;;;;;;;;;;;;;16.11;100.00;99356.35;1681683;84;20178;-68
2022/07/17 02:55:06;;;;;;;;;;;;;;;16.10;100.00;99360.38;1670818;84;20455;-68
2022/07/17 02:57:33;;;;;;;;;;;;;;;16.10;100.00;99367.78;1667787;83;20144;-68
2022/07/17 02:59:59;;;;;;;;;;;;;;;16.10;100.00;99366.48;1677589;84;21255;-68
2022/07/17 03:02:26;;;;;;;;;;;;;;;16.10;100.00;99364.32;1665083;85;20148;-68
2022/07/17 03:04:52;;;;;;;;;;;;;;;16.12;100.00;99367.69;1673813;85;20431;-68
2022/07/17 03:07:18;;;;;;;;;;;;;;;16.12;100.00;99362.44;1661165;83;20164;-68
2022/07/17 03:09:45;;;;;;;;;;;;;;;16.12;100.00;99367.22;1681387;83;20155;-68
2022/07/17 03:12:11;;;;;;;;;;;;;;;16.10;100.00;99370.41;1681072;84;21170;-68
2022/07/17 03:14:38;;;;;;;;;;;;;;;16.10;100.00;99373.03;1687209;84;20092;-68
2022/07/17 03:17:04;;;;;;;;;;;;;;;16.11;100.00;99372.56;1688242;84;20115;-68
2022/07/17 03:19:31;;;;;;;;;;;;;;;16.10;100.00;99370.88;1668650;84;20144;-68
2022/07/17 03:21:57;;;;;;;;;;;;;;;16.07;100.00;99366.67;1666884;83;20154;-68
2022/07/17 03:24:24;;;;;;;;;;;;;;;16.07;100.00;99368.45;1662640;84;21818;-69
2022/07/17 03:26:51;;;;;;;;;;;;;;;16.05;100.00;99370.33;1668053;85;20156;-68
2022/07/17 03:29:17;;;;;;;;;;;;;;;16.04;100.00;99372.58;1670187;84;20157;-67
2022/07/17 03:31:45;;;;;;;;;;;;;;;16.04;100.00;99381.30;1670396;85;20165;-67
2022/07/17 03:34:11;;;;;;;;;;;;;;;16.02;100.00;99377.09;1674704;84;20176;-67
2022/07/17 03:36:37;;;;;;;;;;;;;;;16.01;100.00;99384.11;1680437;84;21172;-67
2022/07/17 03:39:05;;;;;;;;;;;;;;;16.02;100.00;99380.55;1688692;84;20152;-67
2022/07/17 03:41:32;;;;;;;;;;;;;;;16.37;100.00;99390.53;1686574;84;20147;-67
2022/07/17 03:43:59;;;;;;;;;;;;;;;17.02;100.00;99389.17;1674731;84;20458;-67
2022/07/17 03:46:26;;;;;;;;;;;;;;;17.82;100.00;99392.66;1691207;84;20147;-67
2022/07/17 03:48:52;;;;;;;;;;;;;;;18.65;100.00;99395.30;1661560;83;21253;-67
2022/07/17 03:51:19;;;;;;;;;;;;;;;19.44;99.43;99390.45;1662511;85;20428;-67
2022/07/17 03:53:46;;;;;;;;;;;;;;;20.06;93.82;99389.86;1673414;84;20173;-67
2022/07/17 03:56:12;;;;;;;;;;;;;;;20.67;90.11;99387.45;1683524;84;20172;-67
2022/07/17 03:58:39;;;;;;;;;;;;;;;21.33;86.23;99385.80;1684629;84;20508;-68
2022/07/17 04:01:05;;;;;;;;;;;;;;;21.98;82.20;99382.10;1676606;84;21165;-68
2022/07/17 04:03:32;;;;;;;;;;;;;;;22.61;79.11;99387.00;1666283;83;20452;-68
2022/07/17 04:05:59;;;;;;;;;;;;;;;23.19;74.71;99381.56;1678706;84;20151;-68
2022/07/17 04:08:25;;;;;;;;;;;;;;;23.68;72.18;99381.23;1687185;84;20143;-69
2022/07/17 04:10:52;;;;;;;;;;;;;;;24.19;69.84;99386.38;1682331;83;20185;-69
2022/07/17 04:13:18;;;;;;;;;;;;;;;24.57;67.48;99387.09;1670484;85;21158;-69
2022/07/17 04:15:57;;;;;;;;;;;;;;;24.94;66.00;99389.03;1668348;85;20156;-69
2022/07/17 04:18:27;;;;;;;;;;;;;;;25.26;62.38;99386.20;1671582;85;20165;-69
2022/07/17 04:20:54;;;;;;;;;;;;;;;25.46;59.26;99406.27;1647688;86;20494;-69
2022/07/17 04:23:21;;;;;;;;;;;;;;;25.37;58.49;99404.58;1642478;86;20201;-69
2022/07/17 04:25:48;;;;;;;;;;;;;;;25.30;58.45;99407.03;1638595;85;21152;-69
2022/07/17 04:28:16;;;;;;;;;;;;;;;25.27;57.35;99409.17;1646742;85;20159;-69
2022/07/17 04:30:43;;;;;;;;;;;;;;;25.10;56.88;99408.25;1644212;86;20450;-69
2022/07/17 04:33:09;;;;;;;;;;;;;;;24.95;57.73;99411.99;1654137;86;20149;-69
2022/07/17 04:35:35;;;;;;;;;;;;;;;25.09;58.51;99422.55;1646985;86;20154;-69
2022/07/17 04:38:02;;;;;;;;;;;;;;;25.36;56.30;99421.55;1645147;85;21751;-69
2022/07/17 04:40:29;;;;;;;;;;;;;;;25.31;54.19;99427.34;1645198;86;20139;-69
2022/07/17 04:42:55;;;;;;;;;;;;;;;25.05;55.28;99426.02;1614825;87;20176;-69
2022/07/17 04:45:21;;;;;;;;;;;;;;;24.93;55.19;99425.08;1619728;86;20463;-69
2022/07/17 04:47:47;;;;;;;;;;;;;;;24.85;54.84;99425.84;1624990;87;20161;-69
2022/07/17 04:50:15;;;;;;;;;;;;;;;24.88;52.76;99429.53;1620442;86;21247;-69
2022/07/17 04:52:42;;;;;;;;;;;;;;;24.63;52.12;99423.67;1682055;84;20458;-69
2022/07/17 04:55:08;;;;;;;;;;;;;;;24.29;52.36;99432.37;1671390;84;20152;-69
2022/07/17 04:57:35;;;;;;;;;;;;;;;24.04;53.57;99429.92;1681014;84;20148;-69
2022/07/17 05:00:04;;;;;;;;;;;;;;;23.99;54.17;99426.87;1689182;83;20426;-69
2022/07/17 05:02:30;;;;;;;;;;;;;;;23.94;53.14;99425.18;1669033;84;21269;-69
2022/07/17 05:04:56;;;;;;;;;;;;;;;23.83;52.66;99427.19;1671706;85;20147;-67
2022/07/17 05:07:23;;;;;;;;;;;;;;;23.75;53.38;99441.23;1676142;84;20169;-69
2022/07/17 05:09:50;;;;;;;;;;;;;;;23.87;52.66;99445.34;1664168;84;20148;-69
2022/07/17 05:12:18;;;;;;;;;;;;;;;23.97;52.22;99452.78;1671626;84;20164;-69
2022/07/17 05:14:44;;;;;;;;;;;;;;;24.02;51.04;99440.35;1668423;84;20577;-69
2022/07/17 05:17:10;;;;;;;;;;;;;;;23.76;50.31;99458.00;1672854;85;20446;-69
2022/07/17 05:19:37;;;;;;;;;;;;;;;23.52;51.21;99448.73;1670832;85;20452;-69
2022/07/17 05:22:03;;;;;;;;;;;;;;;23.47;50.94;99452.77;1682942;84;20188;-69
2022/07/17 05:24:30;;;;;;;;;;;;;;;23.47;51.80;99460.25;1674732;84;20148;-69
2022/07/17 05:26:57;;;;;;;;;;;;;;;23.69;49.64;99467.03;1669840;84;21055;-69
2022/07/17 05:29:23;;;;;;;;;;;;;;;23.81;48.78;99472.98;1660290;83;20412;-69
2022/07/17 05:31:49;;;;;;;;;;;;;;;23.82;47.18;99468.84;1668980;84;20155;-69
2022/07/17 05:34:15;;;;;;;;;;;;;;;23.81;46.85;99466.34;1676494;85;20419;-70
2022/07/17 05:36:42;;;;;;;;;;;;;;;23.77;46.79;99474.28;1680509;84;20140;-69
2022/07/17 05:39:08;;;;;;;;;;;;;;;23.66;46.19;99475.30;1683541;85;21512;-69
2022/07/17 05:41:35;;;;;;;;;;;;;;;23.61;46.95;99468.25;1683996;84;20144;-69
2022/07/17 05:44:01;;;;;;;;;;;;;;;23.74;46.88;99468.77;1672256;84;20152;-69
2022/07/17 05:46:29;;;;;;;;;;;;;;;23.90;45.21;99474.76;1674590;84;20469;-69
2022/07/17 05:48:55;;;;;;;;;;;;;;;23.85;45.35;99473.87;1669472;84;20152;-69
2022/07/17 05:51:23;;;;;;;;;;;;;;;23.71;44.84;99475.70;1686322;84;20156;-69
2022/07/17 05:53:50;;;;;;;;;;;;;;;23.61;46.58;99480.20;1672388;84;20459;-69
2022/07/17 05:56:16;;;;;;;;;;;;;;;23.59;47.17;99484.81;1666353;84;20324;-69
2022/07/17 05:58:43;;;;;;;;;;;;;;;23.35;44.30;99498.58;1668461;84;20184;-69
2022/07/17 06:01:09;;;;;;;;;;;;;;;22.84;45.04;99493.14;1669962;84;20167;-69
2022/07/17 06:03:35;;;;;;;;;;;;;;;22.41;46.45;99487.38;1679480;84;21216;-69
2022/07/17 06:06:02;;;;;;;;;;;;;;;21.92;48.00;99491.25;1686852;84;20135;-69
2022/07/17 06:08:29;;;;;;;;;;;;;;;21.48;49.64;99495.59;1682928;84;20169;-69
2022/07/17 06:10:56;;;;;;;;;;;;;;;21.12;50.63;99503.51;1687561;84;20127;-69
2022/07/17 06:13:22;;;;;;;;;;;;;;;20.67;50.56;99509.02;1684055;84;20152;-69
2022/07/17 06:15:48;;;;;;;;;;;;;;;20.21;51.56;99505.27;1688594;84;20674;-69
2022/07/17 06:18:15;;;;;;;;;;;;;;;19.86;52.88;99514.70;1662251;85;20220;-69
2022/07/17 06:20:41;;;;;;;;;;;;;;;19.61;53.58;99502.10;1673709;85;20414;-69
2022/07/17 06:23:07;;;;;;;;;;;;;;;19.36;55.07;99504.95;1688232;84;20135;-69
2022/07/17 06:25:34;;;;;;;;;;;;;;;19.11;55.70;99504.66;1688316;84;20180;-69
2022/07/17 06:28:00;;;;;;;;;;;;;;;18.93;56.92;99504.74;1684860;84;21097;-69
2022/07/17 06:30:27;;;;;;;;;;;;;;;18.81;57.78;99504.33;1685480;84;20152;-69
2022/07/17 06:32:53;;;;;;;;;;;;;;;18.70;58.45;99504.30;1685802;84;20403;-69
2022/07/17 06:35:19;;;;;;;;;;;;;;;18.60;58.63;99512.02;1667242;86;20160;-69
2022/07/17 06:37:46;;;;;;;;;;;;;;;18.49;59.24;99516.75;1682767;85;20168;-69
2022/07/17 06:40:12;;;;;;;;;;;;;;;18.37;60.53;99526.88;1683550;84;23201;-69
2022/07/17 06:42:38;;;;;;;;;;;;;;;18.21;60.23;99519.69;1684456;84;20135;-69
2022/07/17 06:45:07;;;;;;;;;;;;;;;18.05;61.64;99527.01;1677442;84;20432;-69
2022/07/17 06:47:34;;;;;;;;;;;;;;;17.86;62.71;99535.37;1677366;84;20271;-69
2022/07/17 06:50:00;;;;;;;;;;;;;;;17.71;63.67;99522.82;1676048;84;20144;-69
2022/07/17 06:52:27;;;;;;;;;;;;;;;17.65;64.59;99529.81;1689771;84;21144;-68
2022/07/17 06:54:53;;;;;;;;;;;;;;;17.72;66.07;99526.29;1679506;84;20141;-68
2022/07/17 06:57:20;;;;;;;;;;;;;;;17.90;64.91;99520.58;1669838;84;20159;-68
2022/07/17 06:59:46;;;;;;;;;;;;;;;18.04;65.48;99526.16;1679141;85;20143;-67
2022/07/17 07:02:13;;;;;;;;;;;;;;;18.12;64.40;99523.00;1675103;84;20428;-67
2022/07/17 07:04:39;;;;;;;;;;;;;;;18.11;64.50;99517.37;1683353;84;21258;-67
2022/07/17 07:07:05;;;;;;;;;;;;;;;18.05;64.80;99517.32;1669969;84;20147;-67
2022/07/17 07:09:32;;;;;;;;;;;;;;;18.05;65.47;99517.32;1676948;84;20275;-67
2022/07/17 07:11:59;;;;;;;;;;;;;;;18.13;65.13;99517.62;1666225;83;20148;-67
2022/07/17 07:14:25;;;;;;;;;;;;;;;18.17;65.59;99516.94;1668810;84;20135;-68
2022/07/17 07:16:53;;;;;;;;;;;;;;;18.21;65.25;99518.38;1682321;84;21176;-69
2022/07/17 07:19:19;;;;;;;;;;;;;;;18.22;65.39;99522.22;1678989;84;20454;-69
2022/07/17 07:21:46;;;;;;;;;;;;;;;18.29;66.20;99531.84;1672869;85;20149;-67
2022/07/17 07:24:12;;;;;;;;;;;;;;;18.40;66.04;99528.41;1667709;85;20214;-69
2022/07/17 07:26:38;;;;;;;;;;;;;;;18.53;64.92;99522.64;1663140;84;20439;-69
2022/07/17 07:29:05;;;;;;;;;;;;;;;18.70;65.59;99524.90;1666021;86;21146;-67
2022/07/17 07:31:31;;;;;;;;;;;;;;;18.92;64.15;99523.67;1685663;84;20204;-69
2022/07/17 07:33:58;;;;;;;;;;;;;;;18.99;60.28;99530.62;1684615;84;20177;-69
2022/07/17 07:36:24;;;;;;;;;;;;;;;18.92;60.71;99532.89;1681036;85;20861;-69
2022/07/17 07:38:50;;;;;;;;;;;;;;;18.84;59.45;99526.02;1685694;83;20151;-69
2022/07/17 07:41:17;;;;;;;;;;;;;;;18.78;59.70;99534.41;1669559;85;21164;-69
2022/07/17 07:43:43;;;;;;;;;;;;;;;18.72;59.89;99531.38;1669964;85;20181;-69
2022/07/17 07:46:11;;;;;;;;;;;;;;;18.59;60.83;99529.63;1689248;85;20491;-67
2022/07/17 07:48:37;;;;;;;;;;;;;;;18.50;61.17;99534.23;1680891;84;20152;-67
2022/07/17 07:51:04;;;;;;;;;;;;;;;18.47;61.91;99530.98;1659171;83;20202;-68
2022/07/17 07:53:30;;;;;;;;;;;;;;;18.49;61.45;99523.81;1670486;84;21147;-68
2022/07/17 07:55:57;;;;;;;;;;;;;;;18.52;62.19;99534.13;1673005;84;20436;-69
2022/07/17 07:58:23;;;;;;;;;;;;;;;18.66;62.62;99534.45;1680974;84;20152;-68
2022/07/17 08:00:49;;;;;;;;;;;;;;;18.86;61.43;99526.75;1660544;85;20465;-69
2022/07/17 08:03:17;;;;;;;;;;;;;;;19.04;60.74;99536.87;1671212;84;20147;-69
2022/07/17 08:05:45;;;;;;;;;;;;;;;19.16;59.74;99532.01;1675146;84;20141;-69
2022/07/17 08:08:11;;;;;;;;;;;;;;;19.28;59.91;99526.63;1678754;85;20494;-69
2022/07/17 08:10:38;;;;;;;;;;;;;;;19.32;59.67;99528.56;1683424;84;20160;-69
2022/07/17 08:13:05;;;;;;;;;;;;;;;19.35;60.02;99515.14;1689108;84;20163;-69
2022/07/17 08:15:31;;;;;;;;;;;;;;;19.46;59.38;99524.85;1687630;85;20211;-69
2022/07/17 08:17:59;;;;;;;;;;;;;;;19.50;59.44;99516.62;1688842;84;21156;-67
2022/07/17 08:20:26;;;;;;;;;;;;;;;19.55;56.06;99518.91;1669801;84;20145;-68
2022/07/17 08:22:52;;;;;;;;;;;;;;;19.51;54.61;99517.46;1675868;85;20152;-67
2022/07/17 08:25:18;;;;;;;;;;;;;;;19.46;52.52;99522.22;1666204;83;20140;-69
2022/07/17 08:27:45;;;;;;;;;;;;;;;19.42;51.59;99524.72;1663994;85;20153;-68
2022/07/17 08:30:14;;;;;;;;;;;;;;;19.41;51.79;99519.92;1669462;84;21162;-68
2022/07/17 08:32:40;;;;;;;;;;;;;;;19.42;52.32;99525.56;1669613;84;20175;-68
2022/07/17 08:35:07;;;;;;;;;;;;;;;19.42;51.12;99524.24;1663067;85;20411;-68
2022/07/17 08:37:44;;;;;;;;;;;;;;;19.40;50.12;99512.97;1680076;84;20210;-68
2022/07/17 08:40:22;;;;;;;;;;;;;;;19.43;50.43;99524.61;1682018;84;20497;-68
2022/07/17 08:42:49;;;;;;;;;;;;;;;19.46;50.60;99531.45;1670416;84;21088;-68
2022/07/17 08:45:16;;;;;;;;;;;;;;;19.47;50.50;99537.08;1678420;84;20223;-68
2022/07/17 08:47:42;;;;;;;;;;;;;;;19.45;48.41;99538.52;1666373;85;20152;-68
2022/07/17 08:50:10;;;;;;;;;;;;;;;19.38;49.62;99525.94;1659416;84;20156;-67
2022/07/17 08:52:38;;;;;;;;;;;;;;;19.38;48.87;99525.46;1675079;85;20182;-67
2022/07/17 08:55:13;;;;;;;;;;;;;;;19.40;48.93;99521.36;1668492;85;20553;-68
2022/07/17 08:57:41;;;;;;;;;;;;;;;19.43;49.87;99527.72;1663553;85;20149;-68
2022/07/17 09:00:18;;;;;;;;;;;;;;;19.48;50.35;99523.78;1675714;84;20151;-68
2022/07/17 09:03:05;;;;;;;;;;;;;;;19.58;50.21;99526.59;1668194;85;20440;-68
2022/07/17 09:05:35;;;;;;;;;;;;;;;19.72;49.55;99523.71;1675336;84;20136;-68
2022/07/17 09:08:03;;;;;;;;;;;;;;;19.76;48.78;99525.16;1658254;85;22038;-69
2022/07/17 09:10:35;;;;;;;;;;;;;;;19.75;50.00;99527.91;1680322;84;20148;-68
2022/07/17 09:13:15;;;;;;;;;;;;;;;19.82;49.52;99527.77;1672633;84;20189;-69
2022/07/17 09:15:43;;;;;;;;;;;;;;;20.01;48.60;99533.75;1684119;84;20172;-68
2022/07/17 09:18:10;;;;;;;;;;;;;;;20.08;46.12;99540.23;1687614;84;20203;-67
2022/07/17 09:20:40;;;;;;;;;;;;;;;20.02;45.53;99534.95;1665299;85;21140;-67
2022/07/17 09:23:07;;;;;;;;;;;;;;;20.05;46.10;99533.39;1675510;85;20239;-67
2022/07/17 09:25:41;;;;;;;;;;;;;;;20.12;46.95;99546.96;1676086;85;20184;-67
2022/07/17 09:28:09;;;;;;;;;;;;;;;20.20;46.64;99541.41;1672565;84;20242;-67
2022/07/17 09:30:37;;;;;;;;;;;;;;;20.36;45.80;99542.84;1649634;85;20253;-68
2022/07/17 09:33:09;;;;;;;;;;;;;;;20.52;45.13;99533.58;1656504;85;21232;-68
2022/07/17 09:35:46;;;;;;;;;;;;;;;20.59;44.88;99554.55;1675459;84;20148;-68
2022/07/17 09:38:17;;;;;;;;;;;;;;;20.51;43.73;99547.75;1673862;84;20173;-69
2022/07/17 09:43:44;;;;;;;;;;;;;;;20.55;43.58;99548.34;1670773;85;20149;-67
2022/07/17 09:46:14;;;;;;;;;;;;;;;20.62;42.30;99540.26;1676676;84;21270;-69
2022/07/17 09:48:47;;;;;;;;;;;;;;;20.57;42.85;99547.27;1667578;84;20190;-70
2022/07/17 09:51:11;;;;;;;;;;;;;;;20.56;42.97;99536.33;1666095;84;20176;-70
2022/07/17 09:53:37;;;;;;;;;;;;;;;20.68;42.94;99530.52;1679706;84;20173;-69
2022/07/17 09:56:04;;;;;;;;;;;;;;;20.93;42.08;99538.59;1681625;84;20140;-68
2022/07/17 09:58:31;;;;;;;;;;;;;;;21.12;41.94;99536.08;1667364;86;21169;-67
2022/07/17 10:00:59;;;;;;;;;;;;;;;21.34;42.16;99531.66;1686065;84;20178;-67
2022/07/17 10:03:25;;;;;;;;;;;;;;;21.64;41.60;99534.31;1671058;84;20171;-67
2022/07/17 10:05:52;;;;;;;;;;;;;;;21.88;41.37;99533.52;1677437;84;20194;-67
2022/07/17 10:08:18;;;;;;;;;;;;;;;22.00;40.27;99531.62;1670884;84;20148;-67
2022/07/17 10:10:46;;;;;;;;;;;;;;;21.99;40.13;99536.54;1675041;84;20165;-68
2022/07/17 10:13:15;;;;;;;;;;;;;;;21.97;40.45;99532.73;1678645;85;20439;-68
2022/07/17 10:15:43;;;;;;;;;;;;;;;22.10;39.93;99534.33;1671346;84;20147;-70
2022/07/17 10:18:10;;;;;;;;;;;;;;;22.17;39.70;99539.45;1667771;84;20448;-69
2022/07/17 10:20:36;;;;;;;;;;;;;;;22.21;38.97;99532.88;1669641;83;20165;-69
2022/07/17 10:23:16;;;;;;;;;;;;;;;22.18;39.63;99539.28;1662744;85;21081;-69
2022/07/17 10:25:42;;;;;;;;;;;;;;;22.08;39.52;99529.16;1668596;85;20156;-68
2022/07/17 10:28:09;;;;;;;;;;;;;;;21.90;39.48;99526.28;1657820;85;20161;-68
2022/07/17 10:30:35;;;;;;;;;;;;;;;21.81;40.38;99528.87;1668911;85;20177;-68
2022/07/17 10:33:07;;;;;;;;;;;;;;;21.90;40.73;99518.34;1645919;86;20170;-68
2022/07/17 10:35:45;;;;;;;;;;;;;;;22.07;39.53;99517.38;1666309;84;21205;-68
2022/07/17 10:38:12;;;;;;;;;;;;;;;22.25;40.32;99522.36;1677298;84;20188;-68
2022/07/17 10:40:39;;;;;;;;;;;;;;;22.39;39.22;99517.15;1683407;85;20176;-68
2022/07/17 10:43:06;;;;;;;;;;;;;;;22.38;40.66;99521.64;1680562;84;20180;-68
2022/07/17 10:45:39;;;;;;;;;;;;;;;22.34;40.11;99524.21;1673013;84;20177;-68
2022/07/17 10:48:10;;;;;;;;;;;;;;;22.31;40.19;99530.62;1679778;84;21270;-68
2022/07/17 10:50:45;;;;;;;;;;;;;;;22.17;40.56;99532.82;1677683;84;20165;-68
2022/07/17 10:53:26;;;;;;;;;;;;;;;22.03;41.09;99539.31;1670081;85;20141;-68
2022/07/17 10:56:05;;;;;;;;;;;;;;;21.91;41.45;99535.06;1672420;83;20168;-68
2022/07/17 10:58:37;;;;;;;;;;;;;;;21.74;40.68;99540.99;1684790;84;20163;-68
2022/07/17 11:01:17;;;;;;;;;;;;;;;21.51;41.47;99542.97;1664823;85;21779;-68
2022/07/17 11:03:46;;;;;;;;;;;;;;;21.38;42.22;99537.89;1676266;84;20247;-69
2022/07/17 11:06:33;;;;;;;;;;;;;;;21.33;42.30;99540.56;1686066;84;20472;-68
2022/07/17 11:09:11;;;;;;;;;;;;;;;21.31;42.93;99542.02;1664211;85;20428;-68
2022/07/17 11:11:45;;;;;;;;;;;;;;;21.42;42.75;99552.52;1665820;84;20191;-68
2022/07/17 11:14:20;;;;;;;;;;;;;;;21.44;42.73;99543.96;1685115;85;21166;-68
2022/07/17 11:16:51;;;;;;;;;;;;;;;21.38;43.53;99543.19;1666723;84;20153;-68
2022/07/17 11:19:33;;;;;;;;;;;;;;;21.44;43.89;99550.58;1668348;85;20156;-68
2022/07/17 11:22:03;;;;;;;;;;;;;;;21.50;43.04;99547.42;1679586;84;20502;-68
2022/07/17 11:24:40;;;;;;;;;;;;;;;21.58;43.68;99552.88;1674594;84;20151;-68
2022/07/17 11:27:08;;;;;;;;;;;;;;;21.77;43.90;99548.67;1689744;84;22054;-68
2022/07/17 11:29:38;;;;;;;;;;;;;;;21.84;42.27;99553.77;1698044;84;20414;-68
2022/07/17 11:32:06;;;;;;;;;;;;;;;21.78;42.30;99557.78;1668505;85;20447;-69
2022/07/17 11:34:33;;;;;;;;;;;;;;;21.70;42.25;99562.91;1676653;83;20554;-69
2022/07/17 11:37:01;;;;;;;;;;;;;;;21.58;42.86;99548.09;1676044;84;20161;-69
2022/07/17 11:39:40;;;;;;;;;;;;;;;21.57;42.63;99552.55;1680579;84;21778;-69
2022/07/17 11:42:08;;;;;;;;;;;;;;;21.55;42.86;99551.84;1664744;85;20162;-68
2022/07/17 11:44:35;;;;;;;;;;;;;;;21.40;43.39;99546.99;1686199;84;20151;-68
2022/07/17 11:47:02;;;;;;;;;;;;;;;21.28;44.10;99555.50;1681968;84;20175;-68
2022/07/17 11:49:30;;;;;;;;;;;;;;;21.23;45.12;99553.23;1680230;84;20152;-67
2022/07/17 11:51:58;;;;;;;;;;;;;;;21.24;44.81;99550.94;1687056;85;21059;-67
2022/07/17 11:54:25;;;;;;;;;;;;;;;21.22;44.69;99548.06;1683921;84;20171;-67
2022/07/17 11:56:54;;;;;;;;;;;;;;;21.20;44.91;99547.35;1672276;84;20239;-68
2022/07/17 11:59:27;;;;;;;;;;;;;;;21.25;44.74;99546.01;1689647;83;20167;-68
2022/07/17 12:01:53;;;;;;;;;;;;;;;21.30;44.25;99550.44;1662853;83;20943;-68
2022/07/17 12:04:20;;;;;;;;;;;;;;;21.37;43.71;99538.86;1670866;85;21246;-68
2022/07/17 12:06:47;;;;;;;;;;;;;;;21.48;43.16;99542.73;1688748;84;20156;-68
2022/07/17 12:09:13;;;;;;;;;;;;;;;21.61;42.74;99545.16;1682755;84;20148;-68
2022/07/17 12:11:49;;;;;;;;;;;;;;;21.71;43.38;99538.13;1665901;83;20161;-68
2022/07/17 12:14:16;;;;;;;;;;;;;;;21.80;42.95;99527.20;1671127;84;20144;-68
2022/07/17 12:16:42;;;;;;;;;;;;;;;21.82;41.66;99547.77;1669204;85;21241;-68
2022/07/17 12:19:13;;;;;;;;;;;;;;;21.71;42.97;99544.73;1683398;84;20173;-68
2022/07/17 12:21:57;;;;;;;;;;;;;;;21.72;43.54;99538.48;1689367;85;20155;-68
2022/07/17 12:24:32;;;;;;;;;;;;;;;21.83;42.05;99543.67;1670226;84;20537;-68
2022/07/17 12:27:00;;;;;;;;;;;;;;;21.86;40.10;99535.95;1686737;84;20181;-68
2022/07/17 12:29:27;;;;;;;;;;;;;;;21.75;40.85;99536.89;1674350;84;21172;-68
2022/07/17 12:32:08;;;;;;;;;;;;;;;21.75;41.23;99547.97;1660753;83;20439;-68
2022/07/17 12:34:35;;;;;;;;;;;;;;;21.86;39.72;99539.92;1682956;84;20428;-68
2022/07/17 12:37:02;;;;;;;;;;;;;;;21.93;40.46;99555.64;1673967;84;20213;-68
2022/07/17 12:39:30;;;;;;;;;;;;;;;21.84;38.95;99561.23;1679575;85;20137;-68
2022/07/17 12:41:57;;;;;;;;;;;;;;;21.61;39.39;99566.34;1690452;84;21111;-67
2022/07/17 12:44:24;;;;;;;;;;;;;;;21.42;38.86;99565.74;1663876;83;20173;-68
2022/07/17 12:46:50;;;;;;;;;;;;;;;21.27;39.05;99576.30;1665877;85;20174;-68
2022/07/17 12:49:17;;;;;;;;;;;;;;;21.11;39.14;99562.66;1685338;84;20172;-68